sensor_id;sensor_type;location;lat;lon;timestamp;temperature;humidity
40153;DHT22;26371;56.992;23.912;2022-07-23T00:04:33;20.30;99.90
40153;DHT22;26371;56.992;23.912;2022-07-23T00:11:27;20.30;99.90
40153;DHT22;26371;56.992;23.912;2022-07-23T00:18:11;20.20;99.90
40153;DHT22;26371;56.992;23.912;2022-07-23T00:20:40;20.30;99.90
40153;DHT22;26371;56.992;23.912;2022-07-23T00:26:35;20.30;99.90
40153;DHT22;26371;56.992;23.912;2022-07-23T00:29:05;20.30;99.90
40153;DHT22;26371;56.992;23.912;2022-07-23T00:31:34;20.30;99.90
40153;DHT22;26371;56.992;23.912;2022-07-23T00:41:46;20.20;99.90
40153;DHT22;26371;56.992;23.912;2022-07-23T00:44:19;20.20;99.90
40153;DHT22;26371;56.992;23.912;2022-07-23T00:46:50;20.20;99.90
40153;DHT22;26371;56.992;23.912;2022-07-23T00:49:25;20.10;99.90
40153;DHT22;26371;56.992;23.912;2022-07-23T00:51:55;20.10;99.90
40153;DHT22;26371;56.992;23.912;2022-07-23T00:57:53;19.90;99.90
40153;DHT22;26371;56.992;23.912;2022-07-23T01:04:47;19.90;99.90
40153;DHT22;26371;56.992;23.912;2022-07-23T01:07:17;19.90;99.90
40153;DHT22;26371;56.992;23.912;2022-07-23T01:09:47;19.90;99.90
40153;DHT22;26371;56.992;23.912;2022-07-23T01:12:17;19.90;99.90
40153;DHT22;26371;56.992;23.912;2022-07-23T01:14:55;19.90;99.90
40153;DHT22;26371;56.992;23.912;2022-07-23T01:17:25;19.90;99.90
40153;DHT22;26371;56.992;23.912;2022-07-23T01:19:55;20.00;99.90
40153;DHT22;26371;56.992;23.912;2022-07-23T01:22:29;19.90;99.90
40153;DHT22;26371;56.992;23.912;2022-07-23T01:29:42;20.00;99.90
40153;DHT22;26371;56.992;23.912;2022-07-23T01:32:16;20.00;99.90
40153;DHT22;26371;56.992;23.912;2022-07-23T01:34:46;20.00;99.90
40153;DHT22;26371;56.992;23.912;2022-07-23T01:37:14;20.10;99.90
40153;DHT22;26371;56.992;23.912;2022-07-23T01:39:46;20.00;99.90
40153;DHT22;26371;56.992;23.912;2022-07-23T01:42:15;20.00;99.90
40153;DHT22;26371;56.992;23.912;2022-07-23T01:48:45;19.90;99.90
40153;DHT22;26371;56.992;23.912;2022-07-23T01:56:26;19.80;99.90
40153;DHT22;26371;56.992;23.912;2022-07-23T01:58:56;19.80;99.90
40153;DHT22;26371;56.992;23.912;2022-07-23T02:01:27;19.80;99.90
40153;DHT22;26371;56.992;23.912;2022-07-23T02:12:11;19.90;99.90
40153;DHT22;26371;56.992;23.912;2022-07-23T02:14:40;19.90;99.90
40153;DHT22;26371;56.992;23.912;2022-07-23T02:17:10;19.90;99.90
40153;DHT22;26371;56.992;23.912;2022-07-23T02:19:39;19.80;99.90
40153;DHT22;26371;56.992;23.912;2022-07-23T02:26:20;19.70;99.90
40153;DHT22;26371;56.992;23.912;2022-07-23T02:28:53;19.70;99.90
40153;DHT22;26371;56.992;23.912;2022-07-23T02:31:22;19.20;99.90
40153;DHT22;26371;56.992;23.912;2022-07-23T02:40:18;19.50;99.90
40153;DHT22;26371;56.992;23.912;2022-07-23T02:42:55;19.50;99.90
40153;DHT22;26371;56.992;23.912;2022-07-23T02:45:27;19.50;99.90
40153;DHT22;26371;56.992;23.912;2022-07-23T02:47:59;19.50;99.90
40153;DHT22;26371;56.992;23.912;2022-07-23T02:50:35;18.70;99.90
40153;DHT22;26371;56.992;23.912;2022-07-23T03:00:34;19.40;99.90
40153;DHT22;26371;56.992;23.912;2022-07-23T03:06:57;19.40;99.90
40153;DHT22;26371;56.992;23.912;2022-07-23T03:09:27;19.40;99.90
40153;DHT22;26371;56.992;23.912;2022-07-23T03:11:56;19.40;99.90
40153;DHT22;26371;56.992;23.912;2022-07-23T03:21:41;19.10;99.90
40153;DHT22;26371;56.992;23.912;2022-07-23T03:36:38;19.00;99.90
40153;DHT22;26371;56.992;23.912;2022-07-23T03:39:10;19.10;99.90
40153;DHT22;26371;56.992;23.912;2022-07-23T03:41:41;19.10;99.90
40153;DHT22;26371;56.992;23.912;2022-07-23T03:48:16;19.20;99.90
40153;DHT22;26371;56.992;23.912;2022-07-23T03:50:45;19.30;99.90
40153;DHT22;26371;56.992;23.912;2022-07-23T03:53:16;19.30;99.90
40153;DHT22;26371;56.992;23.912;2022-07-23T03:55:46;19.30;99.90
40153;DHT22;26371;56.992;23.912;2022-07-23T03:58:15;19.20;99.90
40153;DHT22;26371;56.992;23.912;2022-07-23T04:00:44;19.30;99.90
40153;DHT22;26371;56.992;23.912;2022-07-23T04:03:15;19.30;99.90
40153;DHT22;26371;56.992;23.912;2022-07-23T04:05:44;19.30;99.90
40153;DHT22;26371;56.992;23.912;2022-07-23T04:16:25;19.30;99.90
40153;DHT22;26371;56.992;23.912;2022-07-23T04:18:54;19.40;99.90
40153;DHT22;26371;56.992;23.912;2022-07-23T04:31:59;19.70;99.90
40153;DHT22;26371;56.992;23.912;2022-07-23T04:34:53;19.70;99.90
40153;DHT22;26371;56.992;23.912;2022-07-23T04:37:23;19.80;99.90
40153;DHT22;26371;56.992;23.912;2022-07-23T04:39:52;19.80;99.90
40153;DHT22;26371;56.992;23.912;2022-07-23T04:42:23;19.90;99.90
40153;DHT22;26371;56.992;23.912;2022-07-23T04:49:08;20.10;99.90
40153;DHT22;26371;56.992;23.912;2022-07-23T04:51:38;20.20;99.90
40153;DHT22;26371;56.992;23.912;2022-07-23T04:54:12;20.30;99.90
40153;DHT22;26371;56.992;23.912;2022-07-23T04:56:43;20.30;99.90
40153;DHT22;26371;56.992;23.912;2022-07-23T04:59:13;20.50;99.90
40153;DHT22;26371;56.992;23.912;2022-07-23T05:02:12;20.50;99.90
40153;DHT22;26371;56.992;23.912;2022-07-23T05:04:43;20.60;99.90
40153;DHT22;26371;56.992;23.912;2022-07-23T05:07:12;20.70;99.90
40153;DHT22;26371;56.992;23.912;2022-07-23T05:09:42;20.70;99.90
40153;DHT22;26371;56.992;23.912;2022-07-23T05:12:39;20.70;99.90
40153;DHT22;26371;56.992;23.912;2022-07-23T05:15:08;20.70;99.90
40153;DHT22;26371;56.992;23.912;2022-07-23T05:17:38;20.80;99.90
40153;DHT22;26371;56.992;23.912;2022-07-23T05:20:13;20.80;99.90
40153;DHT22;26371;56.992;23.912;2022-07-23T05:22:51;20.70;99.90
40153;DHT22;26371;56.992;23.912;2022-07-23T05:28:54;20.60;99.90
40153;DHT22;26371;56.992;23.912;2022-07-23T05:31:43;20.60;99.90
40153;DHT22;26371;56.992;23.912;2022-07-23T05:37:48;20.70;99.90
40153;DHT22;26371;56.992;23.912;2022-07-23T05:40:20;20.90;99.90
40153;DHT22;26371;56.992;23.912;2022-07-23T05:43:18;20.90;99.90
40153;DHT22;26371;56.992;23.912;2022-07-23T05:49:06;21.10;99.90
40153;DHT22;26371;56.992;23.912;2022-07-23T05:52:24;21.20;99.90
40153;DHT22;26371;56.992;23.912;2022-07-23T05:59:15;21.20;99.90
40153;DHT22;26371;56.992;23.912;2022-07-23T06:01:44;21.20;99.90
40153;DHT22;26371;56.992;23.912;2022-07-23T06:17:24;21.30;99.90
40153;DHT22;26371;56.992;23.912;2022-07-23T06:19:53;21.50;99.90
40153;DHT22;26371;56.992;23.912;2022-07-23T06:26:13;21.50;99.90
40153;DHT22;26371;56.992;23.912;2022-07-23T06:28:42;21.40;99.90
40153;DHT22;26371;56.992;23.912;2022-07-23T06:31:12;21.30;99.90
40153;DHT22;26371;56.992;23.912;2022-07-23T06:36:52;21.30;99.90
40153;DHT22;26371;56.992;23.912;2022-07-23T06:39:21;21.20;99.90
40153;DHT22;26371;56.992;23.912;2022-07-23T06:41:50;21.10;99.90
40153;DHT22;26371;56.992;23.912;2022-07-23T06:48:27;21.20;99.90
40153;DHT22;26371;56.992;23.912;2022-07-23T06:50:57;21.10;99.90
40153;DHT22;26371;56.992;23.912;2022-07-23T07:01:50;21.30;99.90
40153;DHT22;26371;56.992;23.912;2022-07-23T07:04:19;21.40;99.90
40153;DHT22;26371;56.992;23.912;2022-07-23T07:06:49;21.40;99.90
40153;DHT22;26371;56.992;23.912;2022-07-23T07:09:18;21.50;99.90
40153;DHT22;26371;56.992;23.912;2022-07-23T07:11:47;21.40;99.90
40153;DHT22;26371;56.992;23.912;2022-07-23T07:14:16;21.40;99.90
40153;DHT22;26371;56.992;23.912;2022-07-23T07:16:46;21.50;99.90
40153;DHT22;26371;56.992;23.912;2022-07-23T07:19:16;21.50;99.90
40153;DHT22;26371;56.992;23.912;2022-07-23T07:21:45;21.50;99.90
40153;DHT22;26371;56.992;23.912;2022-07-23T07:29:16;21.70;99.90
40153;DHT22;26371;56.992;23.912;2022-07-23T07:31:45;21.80;99.90
40153;DHT22;26371;56.992;23.912;2022-07-23T07:34:17;21.70;99.90
40153;DHT22;26371;56.992;23.912;2022-07-23T07:40:48;21.50;99.90
40153;DHT22;26371;56.992;23.912;2022-07-23T07:47:37;21.70;99.90
40153;DHT22;26371;56.992;23.912;2022-07-23T07:50:09;21.70;99.90
40153;DHT22;26371;56.992;23.912;2022-07-23T07:57:20;21.70;99.90
40153;DHT22;26371;56.992;23.912;2022-07-23T07:59:52;22.10;99.90
40153;DHT22;26371;56.992;23.912;2022-07-23T08:05:51;22.20;99.90
40153;DHT22;26371;56.992;23.912;2022-07-23T08:08:20;22.10;99.90
40153;DHT22;26371;56.992;23.912;2022-07-23T08:10:50;21.90;99.90
40153;DHT22;26371;56.992;23.912;2022-07-23T08:13:19;22.00;99.90
40153;DHT22;26371;56.992;23.912;2022-07-23T08:15:48;22.10;99.90
40153;DHT22;26371;56.992;23.912;2022-07-23T08:18:19;22.10;99.90
40153;DHT22;26371;56.992;23.912;2022-07-23T08:20:50;22.10;99.90
40153;DHT22;26371;56.992;23.912;2022-07-23T08:23:28;22.20;99.90
40153;DHT22;26371;56.992;23.912;2022-07-23T08:25:58;22.40;99.90
40153;DHT22;26371;56.992;23.912;2022-07-23T08:28:28;22.50;99.90
40153;DHT22;26371;56.992;23.912;2022-07-23T08:31:00;22.70;99.90
40153;DHT22;26371;56.992;23.912;2022-07-23T08:33:30;22.70;99.90
40153;DHT22;26371;56.992;23.912;2022-07-23T08:36:03;22.80;99.90
40153;DHT22;26371;56.992;23.912;2022-07-23T08:38:33;22.90;99.90
40153;DHT22;26371;56.992;23.912;2022-07-23T08:41:03;23.10;99.90
40153;DHT22;26371;56.992;23.912;2022-07-23T08:46:04;23.20;99.90
40153;DHT22;26371;56.992;23.912;2022-07-23T08:48:35;23.30;99.90
40153;DHT22;26371;56.992;23.912;2022-07-23T08:51:08;23.40;99.90
40153;DHT22;26371;56.992;23.912;2022-07-23T08:53:38;23.60;99.90
40153;DHT22;26371;56.992;23.912;2022-07-23T08:56:08;23.70;99.90
40153;DHT22;26371;56.992;23.912;2022-07-23T08:58:38;23.80;99.90
40153;DHT22;26371;56.992;23.912;2022-07-23T09:01:07;23.80;99.90
40153;DHT22;26371;56.992;23.912;2022-07-23T09:03:37;23.80;99.90
40153;DHT22;26371;56.992;23.912;2022-07-23T09:06:08;23.70;99.90
40153;DHT22;26371;56.992;23.912;2022-07-23T09:08:39;23.30;99.90
40153;DHT22;26371;56.992;23.912;2022-07-23T09:11:10;23.20;99.90
40153;DHT22;26371;56.992;23.912;2022-07-23T09:18:16;23.10;99.90
40153;DHT22;26371;56.992;23.912;2022-07-23T09:20:45;23.10;99.90
40153;DHT22;26371;56.992;23.912;2022-07-23T09:23:16;23.20;99.90
40153;DHT22;26371;56.992;23.912;2022-07-23T09:25:46;23.20;99.90
40153;DHT22;26371;56.992;23.912;2022-07-23T09:28:15;23.10;99.90
40153;DHT22;26371;56.992;23.912;2022-07-23T09:30:44;23.10;99.90
40153;DHT22;26371;56.992;23.912;2022-07-23T09:33:19;23.00;99.90
40153;DHT22;26371;56.992;23.912;2022-07-23T09:35:59;23.00;99.90
40153;DHT22;26371;56.992;23.912;2022-07-23T09:38:29;22.80;99.90
40153;DHT22;26371;56.992;23.912;2022-07-23T09:41:34;22.60;99.90
40153;DHT22;26371;56.992;23.912;2022-07-23T09:47:56;22.60;99.90
40153;DHT22;26371;56.992;23.912;2022-07-23T09:50:38;22.40;99.90
40153;DHT22;26371;56.992;23.912;2022-07-23T09:53:24;22.50;99.90
40153;DHT22;26371;56.992;23.912;2022-07-23T09:55:58;22.60;99.90
40153;DHT22;26371;56.992;23.912;2022-07-23T09:58:37;22.60;99.90
40153;DHT22;26371;56.992;23.912;2022-07-23T10:01:13;22.50;99.90
40153;DHT22;26371;56.992;23.912;2022-07-23T10:04:20;22.40;99.90
40153;DHT22;26371;56.992;23.912;2022-07-23T10:07:10;22.40;99.90
40153;DHT22;26371;56.992;23.912;2022-07-23T10:14:29;22.70;99.90
40153;DHT22;26371;56.992;23.912;2022-07-23T10:17:04;22.90;99.90
40153;DHT22;26371;56.992;23.912;2022-07-23T10:19:33;23.00;99.90
40153;DHT22;26371;56.992;23.912;2022-07-23T10:22:06;23.20;99.90
40153;DHT22;26371;56.992;23.912;2022-07-23T10:24:52;23.30;99.90
40153;DHT22;26371;56.992;23.912;2022-07-23T10:27:40;23.60;99.90
40153;DHT22;26371;56.992;23.912;2022-07-23T10:30:20;23.80;99.90
40153;DHT22;26371;56.992;23.912;2022-07-23T10:33:00;23.60;99.90
40153;DHT22;26371;56.992;23.912;2022-07-23T10:40:10;23.20;99.90
40153;DHT22;26371;56.992;23.912;2022-07-23T10:42:40;23.20;99.90
40153;DHT22;26371;56.992;23.912;2022-07-23T10:45:32;23.00;99.90
40153;DHT22;26371;56.992;23.912;2022-07-23T10:51:07;22.60;99.90
40153;DHT22;26371;56.992;23.912;2022-07-23T10:54:05;22.60;99.90
40153;DHT22;26371;56.992;23.912;2022-07-23T11:00:32;22.50;99.90
40153;DHT22;26371;56.992;23.912;2022-07-23T11:07:07;22.80;99.90
40153;DHT22;26371;56.992;23.912;2022-07-23T11:09:44;23.00;99.90
40153;DHT22;26371;56.992;23.912;2022-07-23T11:16:47;23.60;99.90
40153;DHT22;26371;56.992;23.912;2022-07-23T11:19:17;23.80;99.90
40153;DHT22;26371;56.992;23.912;2022-07-23T11:21:50;23.90;99.90
40153;DHT22;26371;56.992;23.912;2022-07-23T11:24:52;23.70;99.90
40153;DHT22;26371;56.992;23.912;2022-07-23T11:27:36;23.30;99.90
40153;DHT22;26371;56.992;23.912;2022-07-23T11:30:07;23.30;99.90
40153;DHT22;26371;56.992;23.912;2022-07-23T11:36:02;23.20;99.90
40153;DHT22;26371;56.992;23.912;2022-07-23T11:38:32;23.30;99.90
40153;DHT22;26371;56.992;23.912;2022-07-23T11:45:57;23.40;99.90
40153;DHT22;26371;56.992;23.912;2022-07-23T11:52:52;23.50;99.90
40153;DHT22;26371;56.992;23.912;2022-07-23T11:55:22;23.30;99.90
40153;DHT22;26371;56.992;23.912;2022-07-23T11:57:52;23.20;99.90
40153;DHT22;26371;56.992;23.912;2022-07-23T12:00:26;23.00;99.90
40153;DHT22;26371;56.992;23.912;2022-07-23T12:12:22;23.10;99.90
40153;DHT22;26371;56.992;23.912;2022-07-23T12:19:15;23.00;99.90
40153;DHT22;26371;56.992;23.912;2022-07-23T12:22:13;22.90;99.90
40153;DHT22;26371;56.992;23.912;2022-07-23T12:24:56;22.70;99.90
40153;DHT22;26371;56.992;23.912;2022-07-23T12:27:34;22.60;99.90
40153;DHT22;26371;56.992;23.912;2022-07-23T12:30:17;22.70;99.90
40153;DHT22;26371;56.992;23.912;2022-07-23T12:32:53;22.50;99.90
40153;DHT22;26371;56.992;23.912;2022-07-23T12:35:29;22.60;99.90
40153;DHT22;26371;56.992;23.912;2022-07-23T12:38:01;22.70;99.90
40153;DHT22;26371;56.992;23.912;2022-07-23T12:40:33;23.10;99.90
40153;DHT22;26371;56.992;23.912;2022-07-23T12:43:20;23.20;99.90
40153;DHT22;26371;56.992;23.912;2022-07-23T12:45:51;23.30;99.90
40153;DHT22;26371;56.992;23.912;2022-07-23T12:48:23;23.50;99.90
40153;DHT22;26371;56.992;23.912;2022-07-23T12:50:58;23.70;99.90
40153;DHT22;26371;56.992;23.912;2022-07-23T12:53:33;23.70;99.90
40153;DHT22;26371;56.992;23.912;2022-07-23T12:56:08;23.60;99.90
40153;DHT22;26371;56.992;23.912;2022-07-23T12:58:45;23.70;99.90
40153;DHT22;26371;56.992;23.912;2022-07-23T13:01:32;23.70;99.90
40153;DHT22;26371;56.992;23.912;2022-07-23T13:04:03;23.70;99.90
40153;DHT22;26371;56.992;23.912;2022-07-23T13:06:43;23.90;99.90
40153;DHT22;26371;56.992;23.912;2022-07-23T13:09:34;24.10;99.90
40153;DHT22;26371;56.992;23.912;2022-07-23T13:12:14;23.80;99.50
40153;DHT22;26371;56.992;23.912;2022-07-23T13:14:45;23.70;99.90
40153;DHT22;26371;56.992;23.912;2022-07-23T13:17:15;23.80;99.90
40153;DHT22;26371;56.992;23.912;2022-07-23T13:19:47;24.00;99.90
40153;DHT22;26371;56.992;23.912;2022-07-23T13:22:18;24.10;99.90
40153;DHT22;26371;56.992;23.912;2022-07-23T13:24:50;24.00;99.90
40153;DHT22;26371;56.992;23.912;2022-07-23T13:27:20;24.10;99.90
40153;DHT22;26371;56.992;23.912;2022-07-23T13:29:52;24.10;98.30
40153;DHT22;26371;56.992;23.912;2022-07-23T13:32:23;23.90;98.80
40153;DHT22;26371;56.992;23.912;2022-07-23T13:34:52;23.80;99.50
40153;DHT22;26371;56.992;23.912;2022-07-23T13:37:25;23.70;99.30
40153;DHT22;26371;56.992;23.912;2022-07-23T13:40:01;23.70;99.50
40153;DHT22;26371;56.992;23.912;2022-07-23T13:42:52;23.90;99.90
40153;DHT22;26371;56.992;23.912;2022-07-23T13:45:36;24.10;99.60
40153;DHT22;26371;56.992;23.912;2022-07-23T13:48:13;24.20;99.80
40153;DHT22;26371;56.992;23.912;2022-07-23T13:50:44;24.30;99.40
40153;DHT22;26371;56.992;23.912;2022-07-23T13:53:24;24.40;99.00
40153;DHT22;26371;56.992;23.912;2022-07-23T13:55:54;24.40;98.80
40153;DHT22;26371;56.992;23.912;2022-07-23T13:58:24;24.40;99.00
40153;DHT22;26371;56.992;23.912;2022-07-23T14:00:54;24.30;99.40
40153;DHT22;26371;56.992;23.912;2022-07-23T14:07:46;24.20;98.80
40153;DHT22;26371;56.992;23.912;2022-07-23T14:10:19;24.40;99.30
40153;DHT22;26371;56.992;23.912;2022-07-23T14:16:43;24.40;98.30
40153;DHT22;26371;56.992;23.912;2022-07-23T14:30:47;23.90;99.10
40153;DHT22;26371;56.992;23.912;2022-07-23T14:43:09;23.70;99.90
40153;DHT22;26371;56.992;23.912;2022-07-23T14:45:38;24.00;97.90
40153;DHT22;26371;56.992;23.912;2022-07-23T14:48:08;24.10;98.50
40153;DHT22;26371;56.992;23.912;2022-07-23T14:50:41;24.40;98.00
40153;DHT22;26371;56.992;23.912;2022-07-23T14:53:10;24.70;97.40
40153;DHT22;26371;56.992;23.912;2022-07-23T15:00:15;24.60;96.90
40153;DHT22;26371;56.992;23.912;2022-07-23T15:07:22;24.60;97.80
40153;DHT22;26371;56.992;23.912;2022-07-23T15:09:53;25.20;96.00
40153;DHT22;26371;56.992;23.912;2022-07-23T15:12:29;25.60;97.00
40153;DHT22;26371;56.992;23.912;2022-07-23T15:14:58;25.80;96.20
40153;DHT22;26371;56.992;23.912;2022-07-23T15:17:30;26.00;95.90
40153;DHT22;26371;56.992;23.912;2022-07-23T15:19:59;25.50;96.20
40153;DHT22;26371;56.992;23.912;2022-07-23T15:22:29;25.10;95.60
40153;DHT22;26371;56.992;23.912;2022-07-23T15:24:59;24.70;96.10
40153;DHT22;26371;56.992;23.912;2022-07-23T15:27:29;24.40;97.10
40153;DHT22;26371;56.992;23.912;2022-07-23T15:29:59;24.20;97.00
40153;DHT22;26371;56.992;23.912;2022-07-23T15:32:32;24.10;97.50
40153;DHT22;26371;56.992;23.912;2022-07-23T15:35:01;24.30;97.00
40153;DHT22;26371;56.992;23.912;2022-07-23T15:37:33;24.30;97.10
40153;DHT22;26371;56.992;23.912;2022-07-23T15:40:03;24.20;97.20
40153;DHT22;26371;56.992;23.912;2022-07-23T15:42:46;24.00;97.10
40153;DHT22;26371;56.992;23.912;2022-07-23T15:45:16;23.80;97.20
40153;DHT22;26371;56.992;23.912;2022-07-23T15:47:48;23.70;97.80
40153;DHT22;26371;56.992;23.912;2022-07-23T15:50:17;23.50;97.40
40153;DHT22;26371;56.992;23.912;2022-07-23T15:52:55;23.30;97.40
40153;DHT22;26371;56.992;23.912;2022-07-23T15:55:26;23.20;98.30
40153;DHT22;26371;56.992;23.912;2022-07-23T15:57:55;23.10;97.40
40153;DHT22;26371;56.992;23.912;2022-07-23T16:00:29;23.00;98.10
40153;DHT22;26371;56.992;23.912;2022-07-23T16:02:59;23.10;97.90
40153;DHT22;26371;56.992;23.912;2022-07-23T16:06:02;23.20;97.70
40153;DHT22;26371;56.992;23.912;2022-07-23T16:08:49;23.30;97.80
40153;DHT22;26371;56.992;23.912;2022-07-23T16:11:18;23.20;97.60
40153;DHT22;26371;56.992;23.912;2022-07-23T16:13:47;23.00;97.50
40153;DHT22;26371;56.992;23.912;2022-07-23T16:16:45;22.90;97.30
40153;DHT22;26371;56.992;23.912;2022-07-23T16:19:15;22.70;97.30
40153;DHT22;26371;56.992;23.912;2022-07-23T16:21:44;23.20;98.00
40153;DHT22;26371;56.992;23.912;2022-07-23T16:24:17;22.60;97.90
40153;DHT22;26371;56.992;23.912;2022-07-23T16:26:46;22.50;98.00
40153;DHT22;26371;56.992;23.912;2022-07-23T16:29:20;22.50;98.40
40153;DHT22;26371;56.992;23.912;2022-07-23T16:31:50;22.40;98.70
40153;DHT22;26371;56.992;23.912;2022-07-23T16:34:23;22.30;99.20
40153;DHT22;26371;56.992;23.912;2022-07-23T16:36:52;22.30;98.90
40153;DHT22;26371;56.992;23.912;2022-07-23T16:39:21;22.30;98.60
40153;DHT22;26371;56.992;23.912;2022-07-23T16:41:51;22.20;98.60
40153;DHT22;26371;56.992;23.912;2022-07-23T16:44:20;22.30;99.10
40153;DHT22;26371;56.992;23.912;2022-07-23T16:46:50;22.30;98.70
40153;DHT22;26371;56.992;23.912;2022-07-23T16:51:51;22.20;98.40
40153;DHT22;26371;56.992;23.912;2022-07-23T16:54:21;22.20;98.70
40153;DHT22;26371;56.992;23.912;2022-07-23T16:56:51;22.10;98.60
40153;DHT22;26371;56.992;23.912;2022-07-23T16:59:20;22.00;98.70
40153;DHT22;26371;56.992;23.912;2022-07-23T17:01:52;21.90;99.00
40153;DHT22;26371;56.992;23.912;2022-07-23T17:04:25;21.90;99.10
40153;DHT22;26371;56.992;23.912;2022-07-23T17:06:55;21.80;99.30
40153;DHT22;26371;56.992;23.912;2022-07-23T17:09:28;21.80;99.50
40153;DHT22;26371;56.992;23.912;2022-07-23T17:11:57;21.70;99.30
40153;DHT22;26371;56.992;23.912;2022-07-23T17:14:32;21.60;99.30
40153;DHT22;26371;56.992;23.912;2022-07-23T17:17:10;21.60;99.20
40153;DHT22;26371;56.992;23.912;2022-07-23T17:19:40;21.60;99.00
40153;DHT22;26371;56.992;23.912;2022-07-23T17:22:14;21.50;99.10
40153;DHT22;26371;56.992;23.912;2022-07-23T17:24:52;21.50;99.20
40153;DHT22;26371;56.992;23.912;2022-07-23T17:27:24;21.50;99.30
40153;DHT22;26371;56.992;23.912;2022-07-23T17:29:57;21.50;99.30
40153;DHT22;26371;56.992;23.912;2022-07-23T17:32:27;21.50;99.40
40153;DHT22;26371;56.992;23.912;2022-07-23T17:35:02;21.50;99.30
40153;DHT22;26371;56.992;23.912;2022-07-23T17:37:33;21.40;98.90
40153;DHT22;26371;56.992;23.912;2022-07-23T17:40:03;21.30;99.20
40153;DHT22;26371;56.992;23.912;2022-07-23T17:42:33;21.20;99.50
40153;DHT22;26371;56.992;23.912;2022-07-23T17:45:02;21.10;99.20
40153;DHT22;26371;56.992;23.912;2022-07-23T17:47:34;21.00;99.40
40153;DHT22;26371;56.992;23.912;2022-07-23T17:50:04;21.00;99.70
40153;DHT22;26371;56.992;23.912;2022-07-23T18:05:27;20.60;99.90
40153;DHT22;26371;56.992;23.912;2022-07-23T18:13:04;20.30;99.90
40153;DHT22;26371;56.992;23.912;2022-07-23T18:15:34;20.20;99.90
40153;DHT22;26371;56.992;23.912;2022-07-23T18:18:04;20.10;99.90
40153;DHT22;26371;56.992;23.912;2022-07-23T18:23:13;20.00;99.90
40153;DHT22;26371;56.992;23.912;2022-07-23T18:25:43;19.90;99.90
40153;DHT22;26371;56.992;23.912;2022-07-23T18:28:21;19.70;99.90
40153;DHT22;26371;56.992;23.912;2022-07-23T18:56:02;19.20;99.90
40153;DHT22;26371;56.992;23.912;2022-07-23T18:58:31;19.20;99.90
40153;DHT22;26371;56.992;23.912;2022-07-23T19:01:00;19.20;99.90
40153;DHT22;26371;56.992;23.912;2022-07-23T19:03:43;19.10;99.90
40153;DHT22;26371;56.992;23.912;2022-07-23T19:06:12;19.10;99.90
40153;DHT22;26371;56.992;23.912;2022-07-23T19:08:43;19.10;99.90
40153;DHT22;26371;56.992;23.912;2022-07-23T19:11:12;19.10;99.90
40153;DHT22;26371;56.992;23.912;2022-07-23T19:13:42;19.00;99.90
40153;DHT22;26371;56.992;23.912;2022-07-23T19:16:21;19.00;99.90
40153;DHT22;26371;56.992;23.912;2022-07-23T19:18:50;19.00;99.90
40153;DHT22;26371;56.992;23.912;2022-07-23T19:21:19;18.90;99.90
40153;DHT22;26371;56.992;23.912;2022-07-23T19:23:54;18.90;99.90
40153;DHT22;26371;56.992;23.912;2022-07-23T19:26:27;18.80;99.90
40153;DHT22;26371;56.992;23.912;2022-07-23T19:28:56;18.80;99.90
40153;DHT22;26371;56.992;23.912;2022-07-23T19:31:26;18.80;99.90
40153;DHT22;26371;56.992;23.912;2022-07-23T19:34:01;18.80;99.90
40153;DHT22;26371;56.992;23.912;2022-07-23T19:36:32;18.80;99.90
40153;DHT22;26371;56.992;23.912;2022-07-23T19:39:06;18.80;99.90
40153;DHT22;26371;56.992;23.912;2022-07-23T19:41:35;18.70;99.90
40153;DHT22;26371;56.992;23.912;2022-07-23T19:44:04;18.70;99.90
40153;DHT22;26371;56.992;23.912;2022-07-23T19:46:34;18.70;99.90
40153;DHT22;26371;56.992;23.912;2022-07-23T19:49:12;18.60;99.90
40153;DHT22;26371;56.992;23.912;2022-07-23T19:51:42;18.60;99.90
40153;DHT22;26371;56.992;23.912;2022-07-23T19:54:13;18.60;99.90
40153;DHT22;26371;56.992;23.912;2022-07-23T20:00:40;18.70;99.90
40153;DHT22;26371;56.992;23.912;2022-07-23T20:03:10;18.60;99.90
40153;DHT22;26371;56.992;23.912;2022-07-23T20:05:39;18.60;99.90
40153;DHT22;26371;56.992;23.912;2022-07-23T20:08:12;18.60;99.90
40153;DHT22;26371;56.992;23.912;2022-07-23T20:10:52;18.50;99.90
40153;DHT22;26371;56.992;23.912;2022-07-23T20:13:22;18.50;99.90
40153;DHT22;26371;56.992;23.912;2022-07-23T20:15:57;18.50;99.90
40153;DHT22;26371;56.992;23.912;2022-07-23T20:18:29;18.50;99.90
40153;DHT22;26371;56.992;23.912;2022-07-23T20:20:59;18.40;99.90
40153;DHT22;26371;56.992;23.912;2022-07-23T20:23:30;18.30;99.90
40153;DHT22;26371;56.992;23.912;2022-07-23T20:26:02;18.30;99.90
40153;DHT22;26371;56.992;23.912;2022-07-23T20:28:31;18.20;99.90
40153;DHT22;26371;56.992;23.912;2022-07-23T20:31:01;18.20;99.90
40153;DHT22;26371;56.992;23.912;2022-07-23T20:34:01;18.10;99.90
40153;DHT22;26371;56.992;23.912;2022-07-23T20:36:30;18.10;99.90
40153;DHT22;26371;56.992;23.912;2022-07-23T20:38:59;18.10;99.90
40153;DHT22;26371;56.992;23.912;2022-07-23T20:41:32;18.10;99.90
40153;DHT22;26371;56.992;23.912;2022-07-23T20:44:02;18.20;99.90
40153;DHT22;26371;56.992;23.912;2022-07-23T20:46:33;18.20;99.90
40153;DHT22;26371;56.992;23.912;2022-07-23T20:49:03;18.20;99.90
40153;DHT22;26371;56.992;23.912;2022-07-23T20:51:33;18.20;99.90
40153;DHT22;26371;56.992;23.912;2022-07-23T21:02:08;18.30;99.90
40153;DHT22;26371;56.992;23.912;2022-07-23T21:04:37;18.30;99.90
40153;DHT22;26371;56.992;23.912;2022-07-23T21:07:13;18.40;99.90
40153;DHT22;26371;56.992;23.912;2022-07-23T21:09:45;18.40;99.90
40153;DHT22;26371;56.992;23.912;2022-07-23T21:16:57;18.40;99.90
40153;DHT22;26371;56.992;23.912;2022-07-23T21:19:28;18.30;99.90
40153;DHT22;26371;56.992;23.912;2022-07-23T21:26:40;18.30;99.90
40153;DHT22;26371;56.992;23.912;2022-07-23T21:29:09;18.20;99.90
40153;DHT22;26371;56.992;23.912;2022-07-23T21:31:39;18.20;99.90
40153;DHT22;26371;56.992;23.912;2022-07-23T21:38:53;18.10;99.90
40153;DHT22;26371;56.992;23.912;2022-07-23T21:41:22;18.10;99.90
40153;DHT22;26371;56.992;23.912;2022-07-23T21:48:40;18.10;99.90
40153;DHT22;26371;56.992;23.912;2022-07-23T21:51:11;18.10;99.90
40153;DHT22;26371;56.992;23.912;2022-07-23T21:58:01;18.10;99.90
40153;DHT22;26371;56.992;23.912;2022-07-23T22:00:32;18.10;99.90
40153;DHT22;26371;56.992;23.912;2022-07-23T22:03:04;18.10;99.90
40153;DHT22;26371;56.992;23.912;2022-07-23T22:10:04;18.10;99.90